Time;durP1;ratioP1;P1;durP2;ratioP2;P2;SDS_P1;SDS_P2;PMS_P1;PMS_P2;Temp;Humidity;BMP_temperature;BMP_pressure;BME280_temperature;BME280_humidity;BME280_pressure;Samples;Min_cycle;Max_cycle;Signal;HPM_P1;HPM_P2
2022/10/05 00:01:59;;;;;;;13.60;9.98;;;;;;;13.55;86.73;101597.75;6091348;23;20013;-87
2022/10/05 00:04:27;;;;;;;11.93;9.95;;;;;;;13.57;86.84;101601.22;6090866;23;20455;-87
2022/10/05 00:07:11;;;;;;;13.15;10.10;;;;;;;13.56;86.51;101587.94;6089749;23;20006;-88
2022/10/05 00:09:36;;;;;;;;;;;;;;;13.63;85.09;101592.03;6090614;23;20022;-88
2022/10/05 00:12:17;;;;;;;11.60;10.30;;;;;;;13.53;86.12;101585.41;6065186;23;20338;-87
2022/10/05 00:14:44;;;;;;;13.57;9.90;;;;;;;13.52;87.16;101587.22;6091486;23;20306;-87
2022/10/05 00:17:20;;;;;;;12.43;11.13;;;;;;;13.54;87.14;101584.44;6090416;23;20730;-87
2022/10/05 00:19:50;;;;;;;13.18;11.20;;;;;;;13.51;87.32;101574.78;6090471;23;20089;-87
2022/10/05 00:22:19;;;;;;;14.48;11.70;;;;;;;13.49;87.64;101575.81;6091118;23;20007;-87
2022/10/05 00:24:47;;;;;;;16.75;11.38;;;;;;;13.49;87.67;101575.81;6091640;23;20433;-87
2022/10/05 00:27:18;;;;;;;14.68;10.93;;;;;;;13.47;87.93;101575.03;6090873;23;20009;-87
2022/10/05 00:29:45;;;;;;;15.13;11.10;;;;;;;13.45;88.12;101572.41;6090130;23;20333;-88
2022/10/05 00:32:10;;;;;;;17.17;11.30;;;;;;;13.43;88.26;101567.16;6090991;23;20506;-88
2022/10/05 00:34:36;;;;;;;14.93;10.85;;;;;;;13.43;88.06;101569.84;6104476;23;20033;-87
2022/10/05 00:37:03;;;;;;;14.27;10.90;;;;;;;13.44;88.05;101573.38;6093914;23;20028;-87
2022/10/05 00:39:28;;;;;;;14.48;10.70;;;;;;;13.44;87.81;101570.69;6092122;23;20085;-88
2022/10/05 00:41:57;;;;;;;14.20;10.07;;;;;;;13.44;87.90;101571.56;6066135;23;20057;-87
2022/10/05 00:44:37;;;;;;;13.95;9.60;;;;;;;13.45;87.66;101567.06;6097945;23;20013;-88
2022/10/05 00:47:09;;;;;;;12.43;9.60;;;;;;;13.43;87.96;101575.19;6107072;23;20110;-87
2022/10/05 00:49:46;;;;;;;14.60;9.38;;;;;;;13.42;87.55;101570.78;6090578;23;20049;-88
2022/10/05 00:52:45;;;;;;;12.30;9.95;;;;;;;13.41;87.77;101574.38;6091312;23;20467;-88
2022/10/05 00:55:16;;;;;;;12.95;10.20;;;;;;;13.39;88.10;101578.97;6091364;23;20006;-89
2022/10/05 00:58:01;;;;;;;14.85;10.77;;;;;;;13.39;88.15;101581.63;6097507;23;20002;-88
2022/10/05 01:00:27;;;;;;;11.82;10.48;;;;;;;13.38;88.11;101571.03;6095047;23;20028;-88
2022/10/05 01:03:21;;;;;;;12.65;9.73;;;;;;;13.41;87.90;101574.38;6091835;23;20006;-87
2022/10/05 01:06:00;;;;;;;10.85;9.73;;;;;;;13.40;87.84;101567.31;6090826;23;20014;-88
2022/10/05 01:08:53;;;;;;;11.10;10.00;;;;;;;13.39;87.94;101562.91;6089201;23;20506;-88
2022/10/05 01:11:32;;;;;;;11.85;10.65;;;;;;;13.36;87.81;101563.06;6090052;23;20022;-90
2022/10/05 01:14:10;;;;;;;13.55;11.13;;;;;;;13.37;88.03;101550.56;6090870;23;20066;-87
2022/10/05 01:16:53;;;;;;;13.57;10.85;;;;;;;13.39;87.88;101554.03;6092052;23;20053;-87
2022/10/05 01:19:39;;;;;;;13.27;10.90;;;;;;;13.38;87.59;101549.63;6091313;23;20014;-88
2022/10/05 01:22:26;;;;;;;13.52;10.65;;;;;;;13.38;87.68;101546.97;6092204;23;20022;-87
2022/10/05 01:25:14;;;;;;;13.20;10.75;;;;;;;13.38;87.67;101545.16;6092138;23;20010;-90
2022/10/05 01:27:46;;;;;;;13.13;10.23;;;;;;;13.32;88.15;101537.41;6092138;23;20026;-88
2022/10/05 01:30:14;;;;;;;13.70;10.40;;;;;;;13.31;88.43;101541.03;6089823;23;20010;-88
2022/10/05 01:33:18;;;;;;;12.52;9.48;;;;;;;13.28;88.56;101527.81;6091244;23;20016;-87
2022/10/05 01:35:55;;;;;;;12.32;10.35;;;;;;;13.26;88.69;101534.22;6027936;23;20492;-87
2022/10/05 01:38:56;;;;;;;13.00;11.18;;;;;;;13.29;88.51;101526.88;6091068;23;20014;-87
2022/10/05 01:41:44;;;;;;;12.15;9.82;;;;;;;13.30;88.46;101525.09;6091947;23;20645;-87
2022/10/05 01:44:27;;;;;;;13.52;10.95;;;;;;;13.30;88.37;101528.63;6090955;23;20809;-91
2022/10/05 01:47:40;;;;;;;14.93;10.50;;;;;;;13.32;88.13;101532.06;6091174;23;20010;-87
2022/10/05 01:50:20;;;;;;;13.02;10.27;;;;;;;13.28;87.98;101519.81;6000936;23;20043;-87
2022/10/05 01:53:10;;;;;;;15.25;10.27;;;;;;;13.31;88.63;101522.34;6002315;23;20066;-87
2022/10/05 01:55:42;;;;;;;10.88;9.77;;;;;;;13.29;88.37;101518.84;6002201;23;20079;-89
2022/10/05 01:58:41;;;;;;;12.90;10.05;;;;;;;13.30;88.75;101512.59;6001785;23;20113;-88
2022/10/05 02:01:15;;;;;;;12.70;10.20;;;;;;;13.29;88.51;101518.00;6002407;23;20012;-88
2022/10/05 02:03:53;;;;;;;14.30;9.90;;;;;;;13.28;88.82;101517.13;6002660;23;20008;-87
2022/10/05 02:06:25;;;;;;;11.27;9.45;;;;;;;13.24;88.69;101507.53;6006052;23;20023;-89
2022/10/05 02:09:03;;;;;;;11.18;9.40;;;;;;;13.24;88.73;101491.50;5982944;23;20402;-89
2022/10/05 02:11:29;;;;;;;13.07;9.65;;;;;;;13.25;89.06;101492.38;6012905;23;20035;-89
2022/10/05 02:14:01;;;;;;;13.57;9.85;;;;;;;13.23;88.94;101492.44;6024417;23;20008;-87
2022/10/05 02:16:38;;;;;;;13.30;10.18;;;;;;;13.25;88.93;101489.69;6029795;23;20035;-89
2022/10/05 02:19:14;;;;;;;12.15;10.82;;;;;;;13.22;88.93;101488.03;6028906;23;20022;-88
2022/10/05 02:21:42;;;;;;;12.65;10.35;;;;;;;13.21;89.02;101488.97;6096954;23;20014;-88
2022/10/05 02:24:14;;;;;;;12.55;10.60;;;;;;;13.21;89.14;101484.50;6093862;23;20007;-89
2022/10/05 02:26:40;;;;;;;14.02;10.00;;;;;;;13.19;89.17;101489.03;6094533;23;20003;-91
2022/10/05 02:29:10;;;;;;;12.68;10.73;;;;;;;13.19;89.43;101488.19;6093901;23;20002;-88
2022/10/05 02:31:51;;;;;;;14.90;10.27;;;;;;;13.18;89.54;101487.31;6095577;23;20002;-88
2022/10/05 02:34:27;;;;;;;11.85;9.70;;;;;;;13.20;89.09;101476.53;6093649;23;20002;-87
2022/10/05 02:37:29;;;;;;;13.18;10.05;;;;;;;13.19;89.25;101481.00;6092937;23;20011;-87
2022/10/05 02:40:04;;;;;;;13.32;10.68;;;;;;;13.18;89.21;101471.28;6092650;23;20513;-88
2022/10/05 02:42:43;;;;;;;13.07;10.73;;;;;;;13.17;89.30;101466.88;6091483;23;20117;-88
2022/10/05 02:45:14;;;;;;;12.90;10.32;;;;;;;13.16;89.58;101462.44;6092080;23;20002;-88
2022/10/05 02:47:59;;;;;;;10.15;9.10;;;;;;;13.14;89.56;101453.66;6090286;23;20006;-88
2022/10/05 02:50:33;;;;;;;11.60;10.40;;;;;;;13.09;89.84;101452.19;6090583;23;20030;-88
2022/10/05 02:53:05;;;;;;;13.27;10.48;;;;;;;13.07;90.32;101449.56;6091581;23;20433;-88
2022/10/05 02:56:10;;;;;;;11.77;10.48;;;;;;;13.04;89.94;101446.19;6091409;23;20002;-90
2022/10/05 02:59:15;;;;;;;11.60;9.70;;;;;;;13.02;89.91;101448.09;6090067;23;20014;-87
2022/10/05 03:01:54;;;;;;;11.63;10.52;;;;;;;12.95;90.53;101452.88;6090984;23;20455;-88
2022/10/05 03:04:40;;;;;;;12.07;10.20;;;;;;;12.93;90.54;101450.28;6090366;23;20072;-88
2022/10/05 03:07:22;;;;;;;15.70;10.68;;;;;;;12.89;90.99;101437.16;6089731;23;20026;-89
2022/10/05 03:09:58;;;;;;;13.40;10.73;;;;;;;12.88;91.18;101440.78;6089923;23;20015;-87
2022/10/05 03:12:45;;;;;;;12.27;10.95;;;;;;;12.84;91.56;101432.06;6065004;23;20093;-87
2022/10/05 03:15:40;;;;;;;12.77;10.20;;;;;;;12.81;91.74;101426.88;6090601;23;20012;-88
2022/10/05 03:18:33;;;;;;;13.00;11.00;;;;;;;12.76;92.15;101420.91;6089766;23;20377;-87
2022/10/05 03:21:27;;;;;;;14.30;10.52;;;;;;;12.68;92.03;101423.97;6091411;23;20340;-90
2022/10/05 03:24:29;;;;;;;13.37;10.87;;;;;;;12.71;92.09;101434.50;6065180;23;20078;-88
2022/10/05 03:26:55;;;;;;;11.82;10.63;;;;;;;12.69;92.73;101425.69;6091237;23;20503;-88
2022/10/05 03:29:37;;;;;;;11.05;9.93;;;;;;;12.70;92.78;101423.88;6089878;23;20038;-87
2022/10/05 03:32:18;;;;;;;14.68;10.88;;;;;;;12.70;92.84;101424.72;6091381;23;20002;-87
2022/10/05 03:34:47;;;;;;;14.02;10.82;;;;;;;12.71;93.14;101420.28;6091395;23;20086;-88
2022/10/05 03:37:27;;;;;;;16.27;10.32;;;;;;;12.73;92.84;101426.38;6064385;23;20349;-87
2022/10/05 03:40:23;;;;;;;16.42;11.90;;;;;;;12.75;93.03;101424.53;6064902;23;20041;-88
2022/10/05 03:43:06;;;;;;;14.23;11.05;;;;;;;12.76;93.02;101425.38;6093686;23;20011;-87
2022/10/05 03:45:45;;;;;;;12.07;10.68;;;;;;;12.76;93.09;101423.56;6067045;23;20068;-87
2022/10/05 03:48:16;;;;;;;13.50;10.70;;;;;;;12.77;93.20;101430.63;6068673;23;20011;-89
2022/10/05 03:50:55;;;;;;;12.23;10.55;;;;;;;12.77;92.78;101416.41;6101994;23;20013;-87
2022/10/05 03:53:25;;;;;;;13.85;10.70;;;;;;;12.75;93.11;101424.53;6090551;23;20117;-87
2022/10/05 03:56:00;;;;;;;14.38;10.80;;;;;;;12.76;93.23;101426.25;6091657;23;20008;-87
2022/10/05 03:58:49;;;;;;;12.80;10.63;;;;;;;12.80;93.19;101429.63;6090348;23;20010;-87
2022/10/05 04:01:21;;;;;;;13.75;10.63;;;;;;;12.78;93.18;101435.03;6091640;23;20003;-89
2022/10/05 04:03:55;;;;;;;13.23;10.95;;;;;;;12.78;92.93;101426.16;6091506;23;20053;-87
2022/10/05 04:06:25;;;;;;;14.10;10.18;;;;;;;12.77;93.10;101427.97;6064515;23;20093;-90
2022/10/05 04:09:04;;;;;;;13.23;9.85;;;;;;;12.71;92.95;101423.81;6089786;23;20018;-87
2022/10/05 04:11:39;;;;;;;13.80;10.60;;;;;;;12.77;93.22;101432.44;6090936;23;20013;-86
2022/10/05 04:14:16;;;;;;;16.00;10.43;;;;;;;12.73;93.12;101426.38;6091077;23;20021;-87
2022/10/05 04:16:59;;;;;;;14.30;10.30;;;;;;;12.74;92.92;101428.13;6091326;23;20081;-87
2022/10/05 04:19:33;;;;;;;12.10;10.02;;;;;;;12.75;93.24;101429.88;6089782;23;20074;-87
2022/10/05 04:22:24;;;;;;;12.15;10.27;;;;;;;12.75;92.83;101429.88;6089744;23;20053;-86
2022/10/05 04:25:05;;;;;;;13.38;10.00;;;;;;;12.75;93.30;101432.53;6078480;23;20441;-87
2022/10/05 04:27:40;;;;;;;13.68;9.88;;;;;;;12.73;93.20;101430.88;6064544;23;20333;-90
2022/10/05 04:30:12;;;;;;;15.57;10.68;;;;;;;12.73;93.54;101431.72;6090815;23;20018;-88
2022/10/05 04:32:47;;;;;;;12.02;10.05;;;;;;;12.69;93.62;101423.00;6090603;23;20041;-87
2022/10/05 04:35:37;;;;;;;16.63;10.82;;;;;;;12.69;93.78;101430.16;6089381;23;20006;-90
2022/10/05 04:38:40;;;;;;;13.68;10.18;;;;;;;12.71;93.45;101430.97;6063726;23;20327;-89
2022/10/05 04:41:24;;;;;;;14.70;10.60;;;;;;;12.69;93.69;101419.47;6090988;23;20006;-88
2022/10/05 04:44:05;;;;;;;13.65;9.65;;;;;;;12.69;93.70;101416.81;6094005;23;20009;-88
2022/10/05 04:47:06;;;;;;;11.98;10.30;;;;;;;12.70;93.61;101411.38;6104482;23;20010;-87
2022/10/05 04:49:50;;;;;;;12.90;10.38;;;;;;;12.70;93.70;101413.19;6096915;23;20006;-87
2022/10/05 04:52:52;;;;;;;12.50;10.27;;;;;;;12.69;93.54;101414.13;6092443;23;20013;-89
2022/10/05 04:55:39;;;;;;;12.32;9.95;;;;;;;12.72;93.41;101413.97;6098915;23;20003;-89
2022/10/05 04:58:28;;;;;;;12.73;9.70;;;;;;;12.70;93.70;101408.69;6117363;23;20006;-88
2022/10/05 05:01:19;;;;;;;13.02;9.65;;;;;;;12.71;93.65;101406.91;6116520;23;20002;-89
2022/10/05 05:03:57;;;;;;;14.15;10.40;;;;;;;12.71;93.57;101410.44;6116595;23;19999;-88
2022/10/05 05:06:52;;;;;;;15.32;10.50;;;;;;;12.74;93.29;101405.88;6114154;23;20034;-90
2022/10/05 05:09:30;;;;;;;12.85;9.55;;;;;;;12.71;93.23;101402.44;6117287;23;20010;-89
2022/10/05 05:12:28;;;;;;;12.20;9.30;;;;;;;12.75;93.16;101421.84;6116133;23;20073;-90
2022/10/05 05:14:56;;;;;;;16.08;10.23;;;;;;;12.74;93.36;101404.06;6120075;23;20012;-87
2022/10/05 05:17:33;;;;;;;11.18;9.45;;;;;;;12.74;93.11;101414.75;6115120;23;20034;-88
2022/10/05 05:20:05;;;;;;;11.30;9.02;;;;;;;12.76;93.00;101406.69;6105566;23;20014;-89
2022/10/05 05:22:46;;;;;;;10.35;9.10;;;;;;;12.74;93.23;101412.09;6078939;23;20061;-88
2022/10/05 05:25:33;;;;;;;12.57;9.38;;;;;;;12.74;93.25;101398.72;6112911;23;19998;-87
2022/10/05 05:28:23;;;;;;;10.15;8.75;;;;;;;12.76;93.09;101394.19;6092282;23;20104;-89
2022/10/05 05:31:19;;;;;;;13.05;9.68;;;;;;;12.75;93.03;101397.81;6093317;23;20320;-86
2022/10/05 05:34:06;;;;;;;12.20;8.65;;;;;;;12.76;92.59;101394.19;6092946;23;20002;-88
2022/10/05 05:36:40;;;;;;;12.10;8.35;;;;;;;12.78;92.56;101396.78;6091819;23;20013;-87
2022/10/05 05:39:14;;;;;;;11.23;8.68;;;;;;;12.81;92.45;101400.16;6092106;23;20057;-87
2022/10/05 05:41:56;;;;;;;10.20;8.13;;;;;;;12.74;92.43;101388.03;6092823;23;20013;-86
2022/10/05 05:44:42;;;;;;;10.93;8.40;;;;;;;12.83;91.78;101394.72;6094543;23;20002;-86
2022/10/05 05:47:33;;;;;;;11.27;8.45;;;;;;;12.81;91.10;101384.13;6092953;23;20006;-87
2022/10/05 05:50:09;;;;;;;8.60;7.20;;;;;;;12.86;91.27;101390.09;6093444;23;20077;-87
2022/10/05 05:52:41;;;;;;;7.97;7.15;;;;;;;12.85;90.96;101377.69;6093218;23;20010;-87
2022/10/05 05:55:23;;;;;;;7.03;6.33;;;;;;;12.88;90.61;101377.53;6093372;23;20051;-88
2022/10/05 05:58:16;;;;;;;8.13;7.00;;;;;;;12.93;90.26;101385.31;6066669;23;20014;-88
2022/10/05 06:00:53;;;;;;;9.50;6.55;;;;;;;12.96;90.20;101369.13;6092133;23;20010;-87
2022/10/05 06:03:36;;;;;;;8.00;6.88;;;;;;;12.98;90.09;101375.22;6091512;23;20632;-88
2022/10/05 06:06:08;;;;;;;7.63;6.17;;;;;;;12.96;89.98;101363.78;6090195;23;20033;-87
2022/10/05 06:08:50;;;;;;;9.77;6.60;;;;;;;13.02;89.75;101379.47;6090928;23;20262;-86
2022/10/05 06:11:21;;;;;;;8.07;6.22;;;;;;;13.02;89.89;101379.47;6089096;23;20014;-85
2022/10/05 06:13:48;;;;;;;9.35;6.95;;;;;;;13.04;89.59;101372.25;6089310;23;20581;-86
2022/10/05 06:16:28;;;;;;;7.90;6.05;;;;;;;13.08;89.46;101383.63;6087032;23;20013;-86
2022/10/05 06:18:58;;;;;;;7.88;6.35;;;;;;;13.10;89.02;101379.94;6062491;23;20092;-86
2022/10/05 06:21:29;;;;;;;6.68;6.05;;;;;;;13.11;89.13;101367.44;6087862;23;20081;-87
2022/10/05 06:24:19;;;;;;;8.05;5.97;;;;;;;13.12;88.94;101361.13;6089181;23;20010;-86
2022/10/05 06:27:21;;;;;;;7.82;6.15;;;;;;;13.14;88.51;101359.25;6088264;23;20010;-88
2022/10/05 06:29:55;;;;;;;7.25;6.20;;;;;;;13.21;88.42;101379.38;6087128;23;20126;-87
2022/10/05 06:32:39;;;;;;;7.28;5.32;;;;;;;13.22;88.44;101375.75;6088489;23;20002;-87
2022/10/05 06:35:35;;;;;;;6.07;5.45;;;;;;;13.27;88.04;101371.06;6089239;23;20031;-90
2022/10/05 06:38:38;;;;;;;6.60;5.85;;;;;;;13.28;87.86;101372.78;6026553;23;20428;-87
2022/10/05 06:41:13;;;;;;;7.55;5.82;;;;;;;13.29;88.25;101371.81;6089818;23;20061;-88
2022/10/05 06:44:00;;;;;;;7.95;6.07;;;;;;;13.31;87.71;101377.97;6089447;23;20006;-85
2022/10/05 06:46:34;;;;;;;6.40;5.75;;;;;;;13.34;87.60;101369.78;6087887;23;20013;-85
2022/10/05 06:49:12;;;;;;;6.18;5.05;;;;;;;13.32;87.62;101371.66;6093771;23;20025;-85
2022/10/05 06:51:54;;;;;;;7.13;5.50;;;;;;;13.33;87.51;101364.50;6090401;23;20010;-86
2022/10/05 06:54:42;;;;;;;8.07;6.15;;;;;;;13.43;87.40;101376.44;6064992;23;20007;-87
2022/10/05 06:57:45;;;;;;;9.02;6.38;;;;;;;13.43;87.14;101369.28;6088548;23;20006;-87
2022/10/05 07:00:16;;;;;;;6.80;5.60;;;;;;;13.47;86.99;101369.13;6088057;23;20006;-87
2022/10/05 07:02:47;;;;;;;7.97;5.22;;;;;;;13.48;86.71;101370.84;6088541;23;20011;-87
2022/10/05 07:05:37;;;;;;;8.48;5.35;;;;;;;13.58;86.73;101372.06;6088093;23;20073;-88
2022/10/05 07:08:23;;;;;;;7.22;5.07;;;;;;;13.62;86.70;101373.59;6089671;23;20002;-87
2022/10/05 07:11:08;;;;;;;7.05;4.93;;;;;;;13.68;86.11;101368.78;6034018;23;20062;-88
2022/10/05 07:13:36;;;;;;;6.57;4.82;;;;;;;13.74;85.90;101372.06;6033184;23;20007;-89
2022/10/05 07:16:44;;;;;;;5.95;4.68;;;;;;;13.79;85.98;101370.00;6032196;23;20075;-87
2022/10/05 07:19:44;;;;;;;5.68;4.57;;;;;;;13.85;85.63;101370.53;6025039;23;20482;-87
2022/10/05 07:22:40;;;;;;;7.47;4.57;;;;;;;13.91;85.63;101374.66;6033649;23;20155;-87
2022/10/05 07:25:35;;;;;;;6.47;4.30;;;;;;;13.99;84.97;101374.22;6033446;23;19999;-83
2022/10/05 07:28:21;;;;;;;6.03;4.50;;;;;;;14.02;84.65;101376.75;6033239;23;20412;-83
2022/10/05 07:31:15;;;;;;;5.38;4.15;;;;;;;14.08;84.25;101377.25;6033904;23;20015;-84
2022/10/05 07:33:50;;;;;;;5.53;4.75;;;;;;;14.10;83.72;101377.19;6033664;23;20003;-84
2022/10/05 07:39:36;;;;;;;5.60;4.32;;;;;;;14.23;83.08;101374.66;6036102;23;20053;-83
2022/10/05 07:42:26;;;;;;;7.47;4.28;;;;;;;14.21;82.86;101366.69;6036903;23;20003;-84
2022/10/05 07:45:09;;;;;;;4.85;4.20;;;;;;;14.26;83.43;101370.00;6033888;23;20014;-84
2022/10/05 07:47:39;;;;;;;6.43;4.25;;;;;;;14.31;83.00;101375.06;6033722;23;20011;-84
2022/10/05 07:50:16;;;;;;;5.55;4.50;;;;;;;14.37;83.27;101380.91;6031643;23;20035;-84
2022/10/05 07:53:01;;;;;;;6.50;3.90;;;;;;;14.44;82.88;101381.44;6033285;23;20011;-83
2022/10/05 07:55:35;;;;;;;5.68;3.85;;;;;;;14.52;82.71;101386.38;6032724;23;20410;-83
2022/10/05 07:58:24;;;;;;;5.63;3.88;;;;;;;14.53;82.09;101385.41;6033325;23;20030;-83
2022/10/05 08:01:24;;;;;;;6.10;4.30;;;;;;;14.59;82.39;101385.03;6032485;23;20053;-82
2022/10/05 08:04:08;;;;;;;4.22;3.83;;;;;;;14.60;81.51;101384.13;6031590;23;20007;-83
2022/10/05 08:06:36;;;;;;;;;;;;;;;14.68;81.58;101385.38;6032321;23;20013;-83
2022/10/05 08:09:21;;;;;;;4.28;3.88;;;;;;;14.62;81.43;101379.50;6059682;23;19975;-83
2022/10/05 08:12:19;;;;;;;5.03;4.30;;;;;;;14.69;81.22;101380.88;6061448;23;20011;-82
2022/10/05 08:15:02;;;;;;;4.25;3.75;;;;;;;14.79;80.79;101384.72;6061411;23;20086;-84
2022/10/05 08:17:51;;;;;;;5.95;3.85;;;;;;;14.83;80.72;101370.19;6061330;23;20017;-86
2022/10/05 08:20:30;;;;;;;4.40;3.85;;;;;;;14.90;80.13;101382.28;6062201;23;20074;-86
2022/10/05 08:23:16;;;;;;;5.70;3.88;;;;;;;14.98;80.44;101367.56;6062080;23;20085;-87
2022/10/05 08:26:21;;;;;;;4.78;4.03;;;;;;;15.07;80.09;101367.84;6061367;23;20003;-86
2022/10/05 08:29:15;;;;;;;7.80;4.57;;;;;;;15.15;79.75;101364.69;6063604;23;20006;-86
2022/10/05 08:31:44;;;;;;;5.07;4.00;;;;;;;15.22;79.21;101359.84;6063672;23;20322;-85
2022/10/05 08:34:29;;;;;;;5.63;3.70;;;;;;;15.28;78.70;101352.25;6061359;23;20070;-86
2022/10/05 08:37:12;;;;;;;4.88;3.67;;;;;;;15.30;78.53;101355.72;6061841;23;20002;-85
2022/10/05 08:39:41;;;;;;;5.60;4.10;;;;;;;15.37;78.42;101346.31;6063606;23;20014;-84
2022/10/05 08:42:44;;;;;;;6.30;3.80;;;;;;;15.44;78.38;101342.28;6063692;23;20024;-85
2022/10/05 08:45:42;;;;;;;4.90;3.90;;;;;;;15.51;78.28;101347.25;6061272;23;20412;-85
2022/10/05 08:48:25;;;;;;;5.65;3.90;;;;;;;15.57;77.92;101338.81;6062867;23;20003;-85
2022/10/05 08:51:15;;;;;;;5.53;3.67;;;;;;;15.64;77.34;101345.53;6063287;23;20007;-84
2022/10/05 08:53:49;;;;;;;6.57;3.40;;;;;;;15.73;77.03;101344.09;6063364;23;20014;-85
2022/10/05 08:56:38;;;;;;;5.18;3.70;;;;;;;15.83;76.62;101343.41;6061957;23;20437;-85
2022/10/05 08:59:12;;;;;;;5.30;3.60;;;;;;;16.03;74.85;101341.25;6063056;23;20508;-85
2022/10/05 09:01:58;;;;;;;5.85;4.13;;;;;;;16.11;75.39;101333.53;6063031;23;20006;-86
2022/10/05 09:05:16;;;;;;;6.40;3.50;;;;;;;16.26;75.72;101347.75;6060283;23;20022;-86
2022/10/05 09:08:07;;;;;;;5.43;3.53;;;;;;;16.32;75.44;101339.31;5944683;24;20016;-87
2022/10/05 09:10:57;;;;;;;4.57;3.47;;;;;;;16.41;74.28;101336.84;5945523;24;20035;-87
2022/10/05 09:13:22;;;;;;;7.20;3.85;;;;;;;16.40;73.67;101334.28;5941284;24;20012;-87
2022/10/05 09:16:03;;;;;;;3.92;3.53;;;;;;;16.47;74.64;101335.59;5944687;24;20023;-87
2022/10/05 09:18:42;;;;;;;5.88;3.40;;;;;;;16.56;73.19;101339.47;5944427;24;20073;-87
2022/10/05 09:21:28;;;;;;;4.10;3.70;;;;;;;16.63;73.21;101332.69;5945531;24;20103;-86
2022/10/05 09:24:13;;;;;;;6.00;3.13;;;;;;;16.68;73.04;101338.66;5944827;24;20013;-86
2022/10/05 09:27:15;;;;;;;5.55;3.20;;;;;;;16.72;73.84;101333.91;5922275;24;20103;-86
2022/10/05 09:30:11;;;;;;;6.03;3.42;;;;;;;16.83;72.71;101334.91;5937888;24;20515;-86
2022/10/05 09:33:15;;;;;;;4.32;3.00;;;;;;;16.77;72.97;101327.28;5946688;24;20012;-85
2022/10/05 09:36:02;;;;;;;4.75;3.00;;;;;;;16.77;72.74;101329.97;5922543;24;20099;-87
2022/10/05 09:38:45;;;;;;;5.97;2.95;;;;;;;16.82;72.90;101327.81;5946592;24;20012;-86
2022/10/05 09:41:22;;;;;;;4.88;3.40;;;;;;;16.85;72.11;101327.63;5946164;24;20023;-84
2022/10/05 09:44:15;;;;;;;3.72;3.40;;;;;;;16.89;72.67;101329.13;6006325;23;20003;-86
2022/10/05 09:46:55;;;;;;;4.15;3.10;;;;;;;16.89;72.31;101326.44;6062503;23;20090;-86
2022/10/05 09:49:35;;;;;;;4.22;3.17;;;;;;;16.97;71.70;101327.72;6062579;23;20058;-86
2022/10/05 09:52:08;;;;;;;10.25;3.33;;;;;;;17.16;72.15;101317.38;6062988;23;20037;-85
2022/10/05 09:54:48;;;;;;;5.20;3.22;;;;;;;17.34;71.21;101315.22;6061451;23;20042;-86
2022/10/05 09:57:42;;;;;;;4.70;3.35;;;;;;;17.36;70.90;101298.00;6062635;23;20007;-85
2022/10/05 10:00:16;;;;;;;;;;;;;;;17.48;71.10;101306.16;6064450;23;20010;-87
2022/10/05 10:02:58;;;;;;;4.30;2.90;;;;;;;17.39;69.16;101305.00;6062039;23;19909;-86
2022/10/05 10:05:32;;;;;;;6.68;3.00;;;;;;;17.34;69.60;101310.69;6062743;23;20002;-86
2022/10/05 10:08:03;;;;;;;6.82;3.40;;;;;;;17.46;69.96;101291.94;6074330;23;20034;-85
2022/10/05 10:10:41;;;;;;;3.75;2.90;;;;;;;17.65;68.54;101303.09;6109778;23;20509;-81
2022/10/05 10:13:41;;;;;;;3.70;3.05;;;;;;;18.01;68.22;101296.81;6105239;23;20042;-85
2022/10/05 10:16:30;;;;;;;8.45;3.13;;;;;;;18.14;67.19;101296.75;6109792;23;20006;-85
2022/10/05 10:19:43;;;;;;;4.97;2.90;;;;;;;18.52;67.00;101291.16;6076780;23;20079;-87
2022/10/05 10:22:39;;;;;;;3.75;2.88;;;;;;;18.88;64.93;101287.44;5956289;24;20439;-85
2022/10/05 10:25:18;;;;;;;3.63;2.67;;;;;;;19.78;61.78;101278.47;5955050;24;20015;-87
2022/10/05 10:28:21;;;;;;;3.55;2.72;;;;;;;20.66;60.12;101275.53;5940927;24;20008;-87
2022/10/05 10:31:01;;;;;;;4.97;2.65;;;;;;;20.58;59.05;101286.16;5955138;24;20041;-88
2022/10/05 10:33:45;;;;;;;4.60;3.00;;;;;;;20.53;57.47;101283.00;5950424;24;20091;-84
2022/10/05 10:36:43;;;;;;;4.15;2.65;;;;;;;20.54;58.99;101280.16;5947561;24;20016;-85
2022/10/05 10:39:19;;;;;;;3.38;2.30;;;;;;;20.53;59.02;101264.06;5949230;24;20013;-86
2022/10/05 10:41:59;;;;;;;3.55;2.40;;;;;;;20.68;58.90;101262.72;5949138;24;20013;-85
2022/10/05 10:44:45;;;;;;;4.50;2.75;;;;;;;20.84;58.59;101260.38;5923924;24;20388;-85
2022/10/05 10:47:26;;;;;;;5.85;2.75;;;;;;;20.79;58.17;101268.06;5945504;24;20420;-85
2022/10/05 10:50:23;;;;;;;5.43;3.20;;;;;;;20.94;58.77;101265.84;5946400;24;20043;-85
2022/10/05 10:53:27;;;;;;;3.60;2.55;;;;;;;20.93;57.74;101255.16;5947775;24;20042;-87
2022/10/05 10:56:12;;;;;;;3.55;2.30;;;;;;;20.71;58.04;101264.31;5946129;24;20416;-86
2022/10/05 10:58:56;;;;;;;2.97;2.47;;;;;;;20.93;56.97;101244.34;6010264;23;20018;-86
2022/10/05 11:01:59;;;;;;;3.45;2.70;;;;;;;21.53;56.64;101248.88;6089518;23;20076;-86
2022/10/05 11:04:55;;;;;;;6.05;2.50;;;;;;;22.35;54.49;101245.78;6063110;23;20013;-85
2022/10/05 11:07:34;;;;;;;7.13;2.60;;;;;;;22.09;54.22;101237.34;6065273;23;20014;-86
2022/10/05 11:10:08;;;;;;;7.30;2.85;;;;;;;22.63;53.19;101230.47;6090707;23;20017;-86
2022/10/05 11:12:39;;;;;;;4.60;2.90;;;;;;;22.63;52.45;101233.19;6089725;23;20102;-85
2022/10/05 11:15:32;;;;;;;3.28;2.40;;;;;;;22.29;53.06;101231.97;6063729;23;20397;-86
2022/10/05 11:18:07;;;;;;;4.40;2.47;;;;;;;22.44;52.57;101226.94;6064990;23;20032;-86
2022/10/05 11:21:01;;;;;;;3.33;2.17;;;;;;;23.29;52.21;101215.94;6088814;23;20006;-85
2022/10/05 11:23:44;;;;;;;4.28;1.90;;;;;;;23.54;50.58;101233.38;6089565;23;20006;-86
2022/10/05 11:26:28;;;;;;;4.53;2.60;;;;;;;23.52;51.37;101218.22;6089500;23;20006;-86
2022/10/05 11:29:02;;;;;;;3.17;2.38;;;;;;;22.97;51.44;101219.09;6062725;23;20006;-86
2022/10/05 11:31:40;;;;;;;5.38;2.58;;;;;;;22.67;50.66;101220.19;6089398;23;20013;-84
2022/10/05 11:34:37;;;;;;;3.63;2.28;;;;;;;22.03;53.41;101228.94;6089533;23;20061;-86
2022/10/05 11:37:11;;;;;;;3.15;2.50;;;;;;;21.16;55.48;101207.13;6089502;23;20002;-86
2022/10/05 11:40:02;;;;;;;2.92;2.40;;;;;;;20.84;56.57;101208.97;6061003;23;20006;-85
2022/10/05 11:43:02;;;;;;;3.25;2.40;;;;;;;21.72;56.58;101207.41;6030797;23;20356;-86
2022/10/05 11:45:49;;;;;;;6.78;2.63;;;;;;;22.36;54.18;101189.69;6089636;23;20002;-85
2022/10/05 11:48:35;;;;;;;3.90;2.90;;;;;;;23.90;51.33;101179.06;6090471;23;20014;-85
2022/10/05 11:51:22;;;;;;;3.65;2.38;;;;;;;25.53;46.12;101181.88;6088327;23;20012;-85
2022/10/05 11:53:57;;;;;;;3.55;2.40;;;;;;;25.24;46.63;101185.03;6088284;23;20441;-85
2022/10/05 11:56:28;;;;;;;3.75;2.20;;;;;;;25.83;45.22;101169.50;6088546;23;20081;-85
2022/10/05 11:58:56;;;;;;;5.25;2.63;;;;;;;26.53;42.71;101171.69;6090148;23;20445;-85
2022/10/05 12:01:40;;;;;;;5.63;2.35;;;;;;;25.73;43.96;101166.06;6089903;23;20012;-84
2022/10/05 12:04:40;;;;;;;8.77;2.50;;;;;;;25.39;46.03;101166.19;6087272;23;20073;-84
2022/10/05 12:07:17;;;;;;;3.72;2.10;;;;;;;26.23;43.16;101155.00;6089273;23;20006;-83
2022/10/05 12:10:13;;;;;;;4.40;2.85;;;;;;;26.57;41.94;101151.19;6088582;23;20014;-83
2022/10/05 12:13:01;;;;;;;2.95;1.95;;;;;;;27.74;40.71;101149.44;6089658;23;20006;-84
2022/10/05 12:15:40;;;;;;;2.13;1.60;;;;;;;28.53;38.29;101139.81;6090023;23;20002;-83
2022/10/05 12:18:30;;;;;;;4.20;1.52;;;;;;;29.21;38.10;101151.50;6088754;23;20017;-83
2022/10/05 12:21:26;;;;;;;4.13;2.28;;;;;;;30.31;36.10;101133.81;6087994;23;20642;-84
2022/10/05 12:24:07;;;;;;;2.25;1.90;;;;;;;30.94;34.62;101125.53;6088851;23;20366;-84
2022/10/05 12:26:39;;;;;;;4.28;1.85;;;;;;;30.50;33.27;101138.56;6088842;23;20460;-83
2022/10/05 12:29:16;;;;;;;3.40;1.63;;;;;;;30.06;35.08;101132.50;6088453;23;20429;-84
2022/10/05 12:31:44;;;;;;;4.63;1.42;;;;;;;30.30;33.46;101129.34;6083405;23;20061;-85
2022/10/05 12:34:27;;;;;;;3.92;1.40;;;;;;;30.36;34.90;101119.47;6087076;23;20006;-85